Latest Weather Observations for Camden

IDN60801

Issued at 6:35 am EDT Wednesday 22 October 2014 (issued every 30 minutes, with the page automatically refreshed every 10 minutes)

About weather observations | Map of weather stations | Latest weather observations for NSW | Other Formats
Station Details ID: 068192 Name: CAMDEN AIRPORT AWS Lat: -34.04 Lon: 150.69 Height: 73.9 m
Data from the previous 72 hours. | See also: Recent months at Camden
Date/Time
EDT
Temp
°C
App
Temp
°C
Dew
Point
Rel
Hum
%
Delta-T
°C
Wind Press
QNH
hPa
Press
MSL
hPa
Rain
since 9 am
mm
Dir
 
Spd
km/h
Gust
km/h
Spd
kts
Gust
kts
22/06:30am 12.6 12.9 10.8 89 0.9 ESE 0 0 0 0 1027.4 1027.3 0.0
22/06:00am 12.8 13.0 10.5 86 1.2 NE 0 0 0 0 1027.3 1027.2 0.0
22/05:30am 12.7 12.8 10.2 85 1.3 CALM 0 0 0 0 1027.3 1027.2 0.0
22/05:00am 12.9 13.1 10.6 86 1.2 CALM 0 0 0 0 1027.3 1027.2 0.0
22/04:30am 13.1 13.3 10.5 84 1.4 CALM 0 0 0 0 1027.4 1027.3 0.0
22/04:00am 13.0 13.2 10.7 86 1.2 CALM 0 0 0 0 1027.7 1027.6 0.0
22/03:30am 13.2 13.1 9.5 78 1.9 CALM 0 0 0 0 1028.0 1027.9 0.0
22/03:00am 13.4 13.5 10.2 81 1.7 CALM 0 0 0 0 1028.3 1028.2 0.0
22/02:30am 13.6 12.4 9.6 77 2.1 NE 6 7 3 4 1028.7 1028.6 0.0
22/02:00am 13.6 13.6 9.8 78 1.9 CALM 0 0 0 0 1029.0 1028.9 0.0
22/01:30am 13.7 13.8 10.1 79 1.9 CALM 0 0 0 0 1029.5 1029.3 0.0
22/01:00am 14.1 14.3 10.5 79 1.9 CALM 0 0 0 0 1030.1 1030.0 0.0
22/12:30am 14.2 14.3 10.0 76 2.2 CALM 0 4 0 2 1030.6 1030.5 0.0
22/12:00am 14.3 13.0 9.9 75 2.3 NNW 7 7 4 4 1030.9 1030.8 0.0
 
Date/Time
EDT
Temp
°C
App
Temp
°C
Dew
Point
Rel
Hum
%
Delta-T
°C
Wind Press
QNH
hPa
Press
MSL
hPa
Rain
since 9 am
mm
Dir
 
Spd
km/h
Gust
km/h
Spd
kts
Gust
kts
21/11:30pm 14.5 13.1 9.7 73 2.5 N 7 9 4 5 1031.1 1031.0 0.0
21/11:00pm 14.8 13.1 9.8 72 2.6 N 9 11 5 6 1031.2 1031.1 0.0
21/10:30pm 14.5 13.1 9.7 73 2.5 N 7 9 4 5 1031.4 1031.3 0.0
21/10:00pm 15.0 13.7 10.0 72 2.6 N 7 9 4 5 1031.4 1031.3 0.0
21/09:30pm 15.0 13.6 9.4 69 2.9 NE 7 9 4 5 1031.3 1031.2 0.0
21/09:00pm 15.3 13.6 8.5 64 3.4 ENE 7 11 4 6 1031.2 1031.1 0.0
21/08:30pm 15.5 13.7 8.0 61 3.8 ENE 7 11 4 6 1031.0 1030.9 0.0
21/08:00pm 15.5 13.3 8.0 61 3.7 ENE 9 11 5 6 1030.6 1030.5 0.0
21/07:30pm 15.6 13.4 7.9 60 3.9 ENE 9 15 5 8 1030.4 1030.3 0.0
21/07:00pm 15.8 13.6 7.8 59 4.0 ENE 9 13 5 7 1030.3 1030.2 0.0
21/06:30pm 16.3 13.6 7.5 56 4.4 ENE 11 17 6 9 1030.1 1030.0 0.0
21/06:00pm 16.5 13.8 7.4 55 4.5 ENE 11 15 6 8 1030.1 1030.0 0.0
21/05:30pm 16.9 14.9 7.3 53 4.8 E 7 11 4 6 1030.0 1029.9 0.0
21/05:00pm 17.0 14.3 7.4 53 4.8 NE 11 15 6 8 1030.1 1030.0 0.0
21/04:30pm 17.0 13.9 7.4 53 4.8 NE 13 17 7 9 1030.0 1029.9 0.0
21/04:00pm 17.2 14.1 7.3 52 4.9 ENE 13 17 7 9 1030.1 1030.0 0.0
21/03:30pm 17.2 13.3 7.3 52 5.0 NE 17 20 9 11 1030.4 1030.3 0.0
21/03:00pm 17.3 14.9 7.1 51 5.1 ENE 9 19 5 10 1030.7 1030.6 0.0
21/02:30pm 17.4 14.2 6.9 50 5.2 NE 13 20 7 11 1031.0 1030.9 0.0
21/02:00pm 17.0 14.3 7.4 53 4.8 ENE 11 17 6 9 1031.5 1031.4 0.0
21/01:30pm 16.8 14.1 7.2 53 4.8 ENE 11 17 6 9 1031.9 1031.8 0.0
21/01:00pm 16.9 14.6 7.5 54 4.7 E 9 13 5 7 1032.2 1032.1 0.0
21/12:30pm 16.7 14.1 7.6 55 4.6 E 11 15 6 8 1032.4 1032.3 0.0
21/12:00pm 16.6 14.0 7.8 56 4.4 E 11 17 6 9 1032.7 1032.6 0.0
21/11:30am 16.6 14.1 8.3 58 4.2 ENE 11 19 6 10 1032.9 1032.8 0.0
21/11:00am 16.8 15.1 7.7 55 4.6 E 6 13 3 7 1033.0 1032.9 0.0
21/10:30am 17.0 14.7 8.9 59 4.2 E 11 20 6 11 1033.1 1033.0 0.0
21/10:00am 16.4 15.1 9.8 65 3.4 SSE 7 11 4 6 1033.2 1033.1 0.0
21/09:30am 15.7 14.2 10.7 72 2.7 S 9 13 5 7 1033.1 1033.0 0.0
21/09:00am 14.9 13.4 10.5 75 2.3 S 9 13 5 7 1033.0 1032.9 1.2
21/08:30am 14.3 13.3 11.1 81 1.7 SSW 7 11 4 6 1032.8 1032.7 1.2
21/08:00am 13.9 13.3 11.6 86 1.2 SW 6 9 3 5 1032.6 1032.5 1.2
21/07:30am 13.3 13.8 11.5 89 1.0 CALM 0 0 0 0 1032.2 1032.1 1.2
21/07:00am 13.0 13.4 11.4 90 0.8 CALM 0 0 0 0 1031.9 1031.8 1.2
21/06:30am 12.8 12.9 11.4 91 0.7 SW 2 6 1 3 1031.7 1031.6 1.2
21/06:00am 12.8 11.9 11.5 92 0.7 SSW 7 9 4 5 1031.4 1031.3 1.2
21/05:30am 13.0 13.7 12.2 95 0.4 CALM 0 0 0 0 1031.2 1031.1 1.2
21/05:00am 12.9 13.2 12.1 95 0.4 SSW 2 6 1 3 1031.3 1031.2 1.2
21/04:30am 12.9 12.2 12.1 95 0.4 SSW 7 9 4 5 1031.2 1031.1 1.2
21/04:00am 13.1 13.9 12.5 96 0.3 CALM 0 7 0 4 1031.4 1031.3 1.2
21/03:30am 13.0 13.3 12.2 95 0.4 SE 2 6 1 3 1031.5 1031.4 1.2
21/03:02am 13.0 13.3 12.2 95 0.4 SE 2 6 1 3 1031.6 1031.5 1.2
21/03:00am 13.0 13.3 12.2 95 0.4 SE 2 7 1 4 1031.6 1031.5 1.2
21/02:42am 13.0 12.4 12.2 95 0.4 E 7 11 4 6 1031.7 1031.6 1.2
21/02:30am 13.2 12.2 12.3 94 0.5 NE 9 13 5 7 1031.7 1031.6 1.0
21/02:23am 13.2 12.6 12.3 94 0.5 NE 7 9 4 5 1031.7 1031.6 1.0
21/02:11am 13.3 13.3 12.4 94 0.5 ENE 4 7 2 4 1031.7 1031.6 0.8
21/02:00am 13.5 13.6 12.7 95 0.4 E 4 9 2 5 1031.7 1031.6 0.8
21/01:45am 13.2 13.6 12.6 96 0.3 WNW 2 7 1 4 1031.8 1031.7 0.8
21/01:32am 13.3 13.0 12.8 97 0.3 NNW 6 9 3 5 1031.8 1031.7 0.8
21/01:30am 13.3 13.4 12.7 96 0.3 NNW 4 9 2 5 1031.8 1031.7 0.8
21/01:26am 13.4 13.9 12.8 96 0.3 NNW 2 9 1 5 1031.9 1031.8 0.6
21/01:09am 13.1 13.8 12.3 95 0.4 CALM 0 0 0 0 1031.9 1031.8 0.6
21/01:00am 13.1 13.4 12.3 95 0.4 WNW 2 6 1 3 1031.9 1031.8 0.4
21/12:40am 13.4 12.9 12.6 95 0.4 NW 7 9 4 5 1031.9 1031.8 0.4
21/12:30am 13.3 12.8 12.5 95 0.4 NW 7 9 4 5 1032.1 1032.0 0.4
21/12:06am 13.5 13.1 12.4 93 0.6 N 6 7 3 4 1032.3 1032.2 0.0
21/12:00am 13.3 12.7 12.2 93 0.6 N 7 7 4 4 1032.3 1032.2 0.0
 
Date/Time
EDT
Temp
°C
App
Temp
°C
Dew
Point
Rel
Hum
%
Delta-T
°C
Wind Press
QNH
hPa
Press
MSL
hPa
Rain
since 9 am
mm
Dir
 
Spd
km/h
Gust
km/h
Spd
kts
Gust
kts
20/11:30pm 13.8 13.1 11.3 85 1.3 W 6 7 3 4 1032.4 1032.3 0.0
20/11:00pm 13.9 13.2 11.4 85 1.3 WNW 6 7 3 4 1032.3 1032.2 0.0
20/10:30pm 14.0 13.8 11.7 86 1.2 NE 4 9 2 5 1032.3 1032.2 0.0
20/10:09pm 14.3 14.1 10.3 77 2.1 ESE 2 6 1 3 1032.3 1032.2 0.0
20/10:00pm 14.1 13.1 10.3 78 2.0 E 6 9 3 5 1032.3 1032.2 0.0
20/09:57pm 14.5 13.6 10.5 77 2.1 E 6 9 3 5 1032.3 1032.2 0.0
20/09:30pm 14.9 13.4 9.1 68 3.0 S 7 11 4 6 1032.2 1032.1 0.0
20/09:00pm 14.8 13.2 8.1 64 3.3 SSW 6 7 3 4 1032.1 1032.0 0.0
20/08:30pm 15.1 13.3 7.9 62 3.6 SW 7 9 4 5 1031.7 1031.6 0.0
20/08:00pm 15.1 12.8 7.6 61 3.7 SSW 9 13 5 7 1031.4 1031.3 0.0
20/07:30pm 15.3 13.0 7.3 59 4.0 S 9 15 5 8 1031.1 1031.0 0.0
20/07:00pm 15.5 12.8 7.5 59 4.0 S 11 17 6 9 1030.9 1030.8 0.0
20/06:30pm 15.6 12.6 9.1 65 3.3 S 15 20 8 11 1030.7 1030.6 0.0
20/06:00pm 16.1 13.0 8.8 62 3.7 S 15 20 8 11 1030.5 1030.4 0.0
20/05:30pm 16.3 13.4 9.5 64 3.5 S 15 22 8 12 1030.4 1030.3 0.0
20/05:00pm 16.5 13.5 9.2 62 3.8 S 15 24 8 13 1030.3 1030.2 0.0
20/04:30pm 16.9 13.5 9.3 61 4.0 SSE 17 24 9 13 1030.1 1030.0 0.0
20/04:00pm 17.0 14.2 9.9 63 3.7 SSE 15 20 8 11 1030.1 1030.0 0.0
20/03:30pm 16.8 13.1 10.0 64 3.6 SSE 20 32 11 17 1030.0 1029.9 0.0
20/03:00pm 17.7 13.6 10.1 61 4.0 S 22 35 12 19 1030.1 1030.0 0.0
20/02:30pm 18.1 14.7 10.5 61 4.1 SSE 19 28 10 15 1030.1 1030.0 0.0
20/02:00pm 18.1 14.2 10.7 62 4.0 S 22 33 12 18 1030.4 1030.3 0.0
20/01:30pm 18.1 14.7 11.4 65 3.7 S 20 33 11 18 1030.5 1030.4 0.0
20/01:00pm 18.5 15.4 10.3 59 4.4 SSE 17 28 9 15 1030.5 1030.4 0.0
20/12:30pm 18.6 15.4 9.9 57 4.6 S 17 26 9 14 1030.6 1030.5 0.0
20/12:00pm 17.6 13.9 10.0 61 4.0 S 20 28 11 15 1030.9 1030.8 0.0
20/11:30am 17.8 14.1 9.4 58 4.4 SSE 19 30 10 16 1031.1 1031.0 0.0
20/11:00am 18.0 14.1 9.4 57 4.5 SSE 20 33 11 18 1030.8 1030.7 0.0
20/10:30am 17.9 14.2 10.3 61 4.1 SSE 20 28 11 15 1030.8 1030.7 0.0
20/10:00am 17.4 13.0 10.3 63 3.8 S 24 33 13 18 1030.5 1030.4 0.0
20/09:30am 17.3 12.8 10.2 63 3.8 SSE 24 37 13 20 1030.0 1029.9 0.0
20/09:00am 17.8 13.3 10.2 61 4.0 S 24 35 13 19 1029.2 1029.1 0.0
20/08:30am 17.6 13.9 10.0 61 4.0 S 20 33 11 18 1028.8 1028.7 0.0
20/08:00am 17.7 13.0 10.6 63 3.8 S 26 39 14 21 1028.0 1027.9 0.0
20/07:30am 17.1 12.8 10.7 66 3.4 S 24 37 13 20 1027.2 1027.1 0.0
20/07:00am 16.7 13.3 11.2 70 3.0 S 20 33 11 18 1026.3 1026.2 0.0
20/06:30am 16.6 12.3 11.9 74 2.6 S 26 35 14 19 1025.6 1025.5 0.0
20/06:00am 16.6 13.0 12.9 79 2.1 S 24 39 13 21 1024.4 1024.3 0.0
20/05:30am 13.1 11.6 12.0 93 0.6 SSE 11 19 6 10 1023.4 1023.3 0.0
20/05:00am 12.1 12.6 11.6 97 0.3 CALM 0 0 0 0 1021.9 1021.8 0.0
20/04:30am 12.3 12.8 11.5 95 0.4 CALM 0 0 0 0 1021.6 1021.5 0.0
20/04:00am 12.3 12.8 11.5 95 0.4 CALM 0 0 0 0 1021.6 1021.5 0.0
20/03:30am 12.2 12.6 11.1 93 0.6 CALM 0 0 0 0 1021.7 1021.6 0.0
20/03:00am 12.7 13.3 11.9 95 0.4 CALM 0 0 0 0 1021.9 1021.8 0.0
20/02:30am 12.6 12.8 11.7 94 0.5 S 2 6 1 3 1021.9 1021.8 0.0
20/02:00am 12.8 13.3 11.5 92 0.7 CALM 0 0 0 0 1022.1 1022.0 0.0
20/01:30am 13.0 12.8 11.7 92 0.7 S 4 7 2 4 1022.4 1022.3 0.0
20/01:00am 13.7 14.4 12.3 91 0.8 CALM 0 0 0 0 1022.6 1022.5 0.0
20/12:30am 13.8 14.4 11.8 88 1.1 CALM 0 0 0 0 1022.7 1022.6 0.0
20/12:00am 14.7 15.4 12.2 85 1.4 CALM 0 4 0 2 1023.3 1023.2 0.0
 
Date/Time
EDT
Temp
°C
App
Temp
°C
Dew
Point
Rel
Hum
%
Delta-T
°C
Wind Press
QNH
hPa
Press
MSL
hPa
Rain
since 9 am
mm
Dir
 
Spd
km/h
Gust
km/h
Spd
kts
Gust
kts
19/11:30pm 14.8 14.3 11.9 83 1.6 SSW 6 6 3 3 1023.4 1023.3 0.0
19/11:00pm 15.4 14.7 11.4 77 2.1 SSE 6 6 3 3 1023.4 1023.3 0.0
19/10:30pm 16.4 17.0 11.8 74 2.5 CALM 0 0 0 0 1023.3 1023.2 0.0
19/10:00pm 18.6 17.7 11.2 62 4.0 ESE 7 9 4 5 1023.3 1023.2 0.0
19/09:30pm 18.9 19.3 11.2 61 4.2 CALM 0 0 0 0 1023.4 1023.3 0.0
19/09:00pm 19.4 19.7 10.9 58 4.6 CALM 0 0 0 0 1023.0 1022.9 0.0
19/08:30pm 19.9 19.1 11.1 57 4.8 E 6 9 3 5 1022.6 1022.5 0.0
19/08:00pm 20.5 19.7 11.2 55 5.1 E 6 9 3 5 1022.2 1022.1 0.0
19/07:30pm 22.1 20.1 11.5 51 5.9 ENE 13 20 7 11 1021.7 1021.6 0.0
19/07:00pm 23.4 21.0 11.5 47 6.7 ENE 15 22 8 12 1021.3 1021.2 0.0
19/06:30pm 26.4 24.0 8.8 33 9.6 NNE 11 15 6 8 1020.8 1020.7 0.0
19/06:00pm 27.3 24.8 9.6 33 9.8 NNE 13 17 7 9 1020.8 1020.7 0.0
19/05:30pm 27.8 25.0 8.6 30 10.5 NNE 13 17 7 9 1020.8 1020.7 0.0
19/05:00pm 27.9 24.8 8.7 30 10.5 NNE 15 24 8 13 1020.8 1020.7 0.0
19/04:30pm 28.0 24.8 8.3 29 10.7 NNE 15 20 8 11 1020.9 1020.8 0.0
19/04:00pm 27.8 24.5 8.1 29 10.7 NNE 15 20 8 11 1021.2 1021.1 0.0
19/03:30pm 27.8 24.3 8.6 30 10.5 NNE 17 24 9 13 1021.5 1021.4 0.0
19/03:00pm 27.9 25.1 8.7 30 10.5 NE 13 20 7 11 1022.0 1021.9 0.0
19/02:30pm 27.4 24.8 9.3 32 10.0 NE 13 19 7 10 1022.4 1022.3 0.0
19/02:00pm 26.6 24.2 8.6 32 9.8 N 11 17 6 9 1022.9 1022.8 0.0
19/01:30pm 25.7 22.4 8.2 33 9.4 NNE 15 20 8 11 1023.4 1023.3 0.0
19/01:00pm 25.4 22.4 9.3 36 8.8 NNE 15 22 8 12 1023.7 1023.6 0.0
19/12:30pm 24.5 22.5 11.5 44 7.4 NNE 13 17 7 9 1024.2 1024.1 0.0
19/12:00pm 22.9 20.4 9.7 43 7.1 NNE 13 17 7 9 1024.9 1024.8 0.0
19/11:30am 22.2 20.4 11.0 49 6.2 NNE 11 17 6 9 1025.4 1025.3 0.0
19/11:00am 21.0 19.4 10.2 50 5.8 NE 9 15 5 8 1026.1 1026.0 0.0
19/10:30am 19.8 17.9 9.1 50 5.7 N 9 15 5 8 1026.7 1026.6 0.0
19/10:00am 18.5 17.3 9.6 56 4.7 NE 6 11 3 6 1027.2 1027.1 0.0
19/09:30am 16.7 15.8 9.4 62 3.8 SE 4 9 2 5 1027.6 1027.5 0.0
19/09:00am 14.5 12.9 8.9 69 2.8 S 7 9 4 5 1027.6 1027.5 0.0
19/08:30am 12.8 11.3 8.5 75 2.1 SE 6 7 3 4 1027.7 1027.6 0.0
19/08:00am 10.7 10.4 8.5 86 1.1 CALM 0 0 0 0 1027.6 1027.5 0.0
19/07:30am 9.7 9.4 8.6 93 0.5 CALM 0 0 0 0 1027.7 1027.6 0.0
19/07:00am 8.0 7.5 7.9 99 0.0 CALM 0 0 0 0 1027.6 1027.5 0.0

Other Formats:

Comma delimited format used in spreadsheet applications
http://www.bom.gov.au/fwo/IDN60801/IDN60801.94755.axf

JavaScript Object Notation format (JSON) in row-major order
http://www.bom.gov.au/fwo/IDN60801/IDN60801.94755.json